Norsol — LG7350 — position and weather

sailwx.info

Track history (hours):
 
Tides and Currents Weather Stations Pressure Air Temp Water Temp Dewpoint Dewpoint Depression Visibility Wind Speed Wind Dir Waves Ship Positions

Norsol

Last reported at 2017-Oct-13 13:02 UTC. Time now 2017-Oct-18 20:03 UTC.
Position N 68°35' E 016°32'.

Length 11 m.

Type: Fishing. MMSI: 257313700.

Date/timePositionNaut miles runAvg speedWind from/ knotsBaromVisibWave heightAir tempDewpointWater temp
2017-Oct-13 13:02N 68°35' E 016°32'0 0.0
2017-Oct-13 12:59N 68°35' E 016°32'0 0.1
2017-Oct-13 12:30N 68°35' E 016°32'0 0.1
2017-Oct-13 12:00N 68°35' E 016°32'0 0.1
2017-Oct-13 11:29N 68°35' E 016°32'4 8.2
2017-Oct-13 11:00N 68°38' E 016°36'4 7.9
2017-Oct-13 10:29N 68°42' E 016°40'4 8.3
2017-Oct-13 10:00N 68°46' E 016°41'4 8.3
2017-Oct-13 09:30N 68°50' E 016°39'4 8.2
2017-Oct-13 09:00N 68°52' E 016°29'4 8.6
2017-Oct-13 08:30N 68°55' E 016°20'4 8.2
2017-Oct-13 08:00N 68°57' E 016°11'22 1.4
2017-Oct-12 16:24N 69°20' E 016°09'2 5.8
2017-Oct-12 16:00N 69°18' E 016°13'0 0.2
2017-Oct-12 15:29N 69°18' E 016°12'0 0.7
2017-Oct-12 15:00N 69°18' E 016°13'0 0.5
2017-Oct-12 14:29N 69°18' E 016°12'2 4.0
2017-Oct-12 13:58N 69°20' E 016°08'0 0.0
2017-Oct-12 13:28N 69°20' E 016°08'0 0.0
2017-Oct-12 12:58N 69°20' E 016°08'0 0.0
2017-Oct-12 12:28N 69°20' E 016°08'0 0.0
2017-Oct-12 11:58N 69°20' E 016°08'0 0.0
2017-Oct-12 11:28N 69°20' E 016°08'0 0.0
2017-Oct-12 10:58N 69°20' E 016°08'0 0.0
2017-Oct-12 10:28N 69°20' E 016°08'0 0.0
2017-Oct-12 09:58N 69°20' E 016°08'0 0.0
2017-Oct-12 09:28N 69°20' E 016°08'0 0.0
2017-Oct-12 08:58N 69°20' E 016°08'0 0.0
2017-Oct-12 08:25N 69°20' E 016°08'0 0.0
2017-Oct-12 07:58N 69°20' E 016°08'0 0.0
2017-Oct-12 07:28N 69°20' E 016°08'0 0.0
2017-Oct-12 06:58N 69°20' E 016°08'0 0.0
2017-Oct-12 06:28N 69°20' E 016°08'0 0.0
2017-Oct-12 05:58N 69°20' E 016°08'0 0.0
2017-Oct-12 05:28N 69°20' E 016°08'0 0.0
2017-Oct-12 04:58N 69°20' E 016°08'0 0.0
2017-Oct-12 04:28N 69°20' E 016°08'0 0.0
2017-Oct-12 03:55N 69°20' E 016°08'0 0.0
2017-Oct-12 03:28N 69°20' E 016°08'0 0.0
2017-Oct-12 02:58N 69°20' E 016°08'0 0.0
2017-Oct-12 02:28N 69°20' E 016°08'0 0.0
2017-Oct-12 01:58N 69°20' E 016°08'0 0.0
2017-Oct-12 01:28N 69°20' E 016°08'0 0.0
2017-Oct-12 00:58N 69°20' E 016°08'0 0.0
2017-Oct-12 00:28N 69°20' E 016°08'0 0.0
2017-Oct-11 23:58N 69°20' E 016°08'0 0.0
2017-Oct-11 23:28N 69°20' E 016°08'0 0.0
2017-Oct-11 22:58N 69°20' E 016°08'0 0.0
2017-Oct-11 22:28N 69°20' E 016°08'0 0.0
2017-Oct-11 21:58N 69°20' E 016°08'0 0.0
2017-Oct-11 21:28N 69°20' E 016°08'0 0.0
2017-Oct-11 20:58N 69°20' E 016°08'0 0.0
2017-Oct-11 20:28N 69°20' E 016°08'0 0.0
2017-Oct-11 19:58N 69°20' E 016°08'0 0.0
2017-Oct-11 19:25N 69°20' E 016°08'0 0.0
2017-Oct-11 18:58N 69°20' E 016°08'0 0.0
2017-Oct-11 18:28N 69°20' E 016°08'0 0.0
2017-Oct-11 17:58N 69°20' E 016°08'0 0.0
2017-Oct-11 17:28N 69°20' E 016°08'0 0.0
2017-Oct-11 16:58N 69°20' E 016°08'0 0.0
2017-Oct-10 23:58N 69°20' E 016°08'0 0.0
2017-Oct-10 23:28N 69°20' E 016°08'0 0.0
2017-Oct-10 22:58N 69°20' E 016°08'0 0.0
2017-Oct-10 22:28N 69°20' E 016°08'0 0.0
2017-Oct-10 21:58N 69°20' E 016°08'0 0.0
2017-Oct-10 21:28N 69°20' E 016°08'0 0.0
2017-Oct-10 20:58N 69°20' E 016°08'0 0.0
2017-Oct-10 20:28N 69°20' E 016°08'0 0.0
2017-Oct-10 19:58N 69°20' E 016°08'0 0.0
2017-Oct-10 19:28N 69°20' E 016°08'0 0.0
2017-Oct-10 18:58N 69°20' E 016°08'0 0.0
2017-Oct-10 18:28N 69°20' E 016°08'0 0.0
2017-Oct-10 17:58N 69°20' E 016°08'0 0.0
2017-Oct-10 17:28N 69°20' E 016°08'0 0.3
2017-Oct-10 17:00N 69°20' E 016°08'0 0.0
2017-Oct-10 16:30N 69°20' E 016°08'0 0.0
2017-Oct-10 16:00N 69°20' E 016°08'0 0.0
2017-Oct-10 15:30N 69°20' E 016°08'0 0.0
2017-Oct-10 15:00N 69°20' E 016°08'0 0.0
2017-Oct-10 14:00N 69°20' E 016°08'0 0.0
2017-Oct-10 13:30N 69°20' E 016°08'0 0.0
2017-Oct-10 13:00N 69°20' E 016°08'0 0.0
2017-Oct-10 12:30N 69°20' E 016°08'0 0.0
2017-Oct-10 12:00N 69°20' E 016°08'0 0.0
2017-Oct-10 11:30N 69°20' E 016°08'0 0.0
2017-Oct-10 11:00N 69°20' E 016°08'0 0.0
2017-Oct-10 10:30N 69°20' E 016°08'0 0.0
2017-Oct-10 10:00N 69°20' E 016°08'0 0.0
2017-Oct-10 09:30N 69°20' E 016°08'0 0.0
2017-Oct-10 09:00N 69°20' E 016°08'0 0.0
2017-Oct-10 08:30N 69°20' E 016°08'0 0.0
2017-Oct-10 08:00N 69°20' E 016°08'0 0.0
2017-Oct-10 07:30N 69°20' E 016°08'0 0.0
2017-Oct-10 07:00N 69°20' E 016°08'0 0.0
2017-Oct-10 06:30N 69°20' E 016°08'0 0.0
2017-Oct-10 06:00N 69°20' E 016°08'0 0.0
2017-Oct-10 05:30N 69°20' E 016°08'0 0.0
2017-Oct-10 05:00N 69°20' E 016°08'0 0.0
2017-Oct-10 04:30N 69°20' E 016°08'0 0.0
2017-Oct-10 04:00N 69°20' E 016°08'0 0.0
2017-Oct-10 03:30N 69°20' E 016°08'0 0.0
2017-Oct-10 03:00N 69°20' E 016°08'0 0.0
2017-Oct-10 02:30N 69°20' E 016°08'0 0.0
2017-Oct-10 02:00N 69°20' E 016°08'0 0.0
2017-Oct-10 01:30N 69°20' E 016°08'0 0.0
2017-Oct-10 01:00N 69°20' E 016°08'0 0.0
2017-Oct-10 00:30N 69°20' E 016°08'0 0.0
2017-Oct-10 00:00N 69°20' E 016°08'0 0.0
2017-Oct-09 23:30N 69°20' E 016°08'0 0.0
2017-Oct-09 23:00N 69°20' E 016°08'0 0.0
2017-Oct-09 22:30N 69°20' E 016°08'0 0.0
2017-Oct-09 22:00N 69°20' E 016°08'0 0.0
2017-Oct-09 21:30N 69°20' E 016°08'0 0.0
2017-Oct-09 21:00N 69°20' E 016°08'0 0.0
2017-Oct-09 20:30N 69°20' E 016°08'0 0.0
2017-Oct-09 20:00N 69°20' E 016°08'0 0.0
2017-Oct-09 19:30N 69°20' E 016°08'0 0.0
2017-Oct-09 19:00N 69°20' E 016°08'0 0.0
2017-Oct-09 18:30N 69°20' E 016°08'0 0.0
2017-Oct-09 18:00N 69°20' E 016°08'0 0.0
2017-Oct-09 17:30N 69°20' E 016°08'0 0.0
2017-Oct-09 17:00N 69°20' E 016°08'0 0.0
2017-Oct-09 16:30N 69°20' E 016°08'0 0.0
2017-Oct-09 16:00N 69°20' E 016°08'0 0.0
2017-Oct-09 15:30N 69°20' E 016°08'0 0.0
2017-Oct-09 15:00N 69°20' E 016°08'0 0.0
2017-Oct-09 14:30N 69°20' E 016°08'0 0.0
2017-Oct-09 14:00N 69°20' E 016°08'0 0.0
2017-Oct-09 13:30N 69°20' E 016°08'0 0.0
2017-Oct-09 13:00N 69°20' E 016°08'0 0.0
2017-Oct-09 12:30N 69°20' E 016°08'0 0.0
2017-Oct-09 12:00N 69°20' E 016°08'0 0.0
2017-Oct-09 11:27N 69°20' E 016°08'0 0.3
2017-Oct-09 11:00N 69°19' E 016°08'0 0.0
2017-Oct-09 10:30N 69°20' E 016°08'1 2.9
2017-Oct-09 10:00N 69°19' E 016°11'1 2.2
2017-Oct-09 09:29N 69°18' E 016°12'0 0.1
2017-Oct-09 08:59N 69°18' E 016°12'0 0.6
2017-Oct-09 08:28N 69°18' E 016°13'0 0.2
2017-Oct-09 07:59N 69°18' E 016°12'0 0.6
2017-Oct-09 07:30N 69°18' E 016°13'0 0.5
2017-Oct-09 07:00N 69°18' E 016°12'0 0.2
2017-Oct-09 06:30N 69°18' E 016°12'0 0.9
2017-Oct-09 05:59N 69°19' E 016°12'1 1.3
2017-Oct-09 05:30N 69°19' E 016°11'1 2.0
2017-Oct-09 05:00N 69°20' E 016°08'0 0.0
2017-Oct-09 04:30N 69°20' E 016°08'0 0.0
2017-Oct-09 04:00N 69°20' E 016°08'0 0.0
2017-Oct-09 03:30N 69°20' E 016°08'0 0.0
2017-Oct-09 03:00N 69°20' E 016°08'0 0.0
2017-Oct-09 02:30N 69°20' E 016°08'0 0.0
2017-Oct-09 02:00N 69°20' E 016°08'0 0.0
2017-Oct-09 01:30N 69°20' E 016°08'0 0.0
2017-Oct-09 01:00N 69°20' E 016°08'0 0.0
2017-Oct-09 00:30N 69°20' E 016°08'0 0.0
2017-Oct-09 00:00N 69°20' E 016°08'0 0.0
2017-Oct-08 23:30N 69°20' E 016°08'0 0.0
2017-Oct-08 23:00N 69°20' E 016°08'0 0.0
2017-Oct-08 22:30N 69°20' E 016°08'0 0.0
2017-Oct-08 22:00N 69°20' E 016°08'0 0.0
2017-Oct-08 21:30N 69°20' E 016°08'0 0.0
2017-Oct-08 21:00N 69°20' E 016°08'0 0.0
2017-Oct-08 20:30N 69°20' E 016°08'0 0.0
2017-Oct-08 20:00N 69°20' E 016°08'0 0.0
2017-Oct-08 19:30N 69°20' E 016°08'0 0.0
2017-Oct-08 19:00N 69°20' E 016°08'0 0.0
2017-Oct-08 18:30N 69°20' E 016°08'0 0.0
2017-Oct-08 18:00N 69°20' E 016°08'0 0.0
2017-Oct-08 17:30N 69°20' E 016°08'0 0.0
2017-Oct-08 17:00N 69°20' E 016°08'0 0.0
2017-Oct-08 16:30N 69°20' E 016°08'0 0.0
2017-Oct-08 16:00N 69°20' E 016°08'0 0.0
2017-Oct-08 15:30N 69°20' E 016°08'0 0.0
2017-Oct-08 15:00N 69°20' E 016°08'0 0.0
2017-Oct-08 14:30N 69°20' E 016°08'0 0.0
2017-Oct-08 14:00N 69°20' E 016°08'0 0.0
2017-Oct-08 13:30N 69°20' E 016°08'0 0.0
2017-Oct-08 13:00N 69°20' E 016°08'0 0.0
2017-Oct-08 12:30N 69°20' E 016°08'0 0.0
2017-Oct-08 12:00N 69°20' E 016°08'0 0.0
2017-Oct-08 11:30N 69°20' E 016°08'0 0.0
2017-Oct-08 11:00N 69°20' E 016°08'0 0.0
2017-Oct-08 10:30N 69°20' E 016°08'0 0.0
2017-Oct-08 10:00N 69°20' E 016°08'0 0.0
2017-Oct-08 09:30N 69°20' E 016°08'0 0.0
2017-Oct-08 09:00N 69°20' E 016°08'0 0.0
2017-Oct-08 08:30N 69°20' E 016°08'0 0.0
2017-Oct-08 08:00N 69°20' E 016°08'0 0.0
2017-Oct-08 07:30N 69°20' E 016°08'0 0.0
2017-Oct-08 07:00N 69°20' E 016°08'0 0.0
2017-Oct-08 06:30N 69°20' E 016°08'0 0.0
2017-Oct-08 06:00N 69°20' E 016°08'0 0.0
2017-Oct-08 05:30N 69°20' E 016°08'0 0.0
2017-Oct-08 05:00N 69°20' E 016°08'0 0.0
2017-Oct-08 04:30N 69°20' E 016°08'0 0.0
2017-Oct-08 04:00N 69°20' E 016°08'0 0.0
2017-Oct-08 03:30N 69°20' E 016°08'0 0.0
2017-Oct-08 03:00N 69°20' E 016°08'0 0.0
2017-Oct-08 02:30N 69°20' E 016°08'0 0.0
2017-Oct-08 02:00N 69°20' E 016°08'0 0.0
2017-Oct-08 01:30N 69°20' E 016°08'0 0.0
2017-Oct-08 01:00N 69°20' E 016°08'0 0.0
2017-Oct-08 00:30N 69°20' E 016°08'0 0.0
2017-Oct-08 00:00N 69°20' E 016°08'0 0.0
2017-Oct-07 23:30N 69°20' E 016°08'0 0.0
2017-Oct-07 23:00N 69°20' E 016°08'0 0.0
2017-Oct-07 22:30N 69°20' E 016°08'0 0.0
2017-Oct-07 22:00N 69°20' E 016°08'0 0.0
2017-Oct-07 21:30N 69°20' E 016°08'0 0.0
2017-Oct-07 21:00N 69°20' E 016°08'0 0.0
2017-Oct-07 20:30N 69°20' E 016°08'0 0.0
2017-Oct-07 20:00N 69°20' E 016°08'0 0.0
2017-Oct-07 19:30N 69°20' E 016°08'0 0.0
2017-Oct-07 19:00N 69°20' E 016°08'0 0.0
2017-Oct-07 18:30N 69°20' E 016°08'0 0.0
2017-Oct-07 18:00N 69°20' E 016°08'0 0.0
2017-Oct-07 17:30N 69°20' E 016°08'0 0.0
2017-Oct-07 17:00N 69°20' E 016°08'0 0.0
2017-Oct-07 16:30N 69°20' E 016°08'0 0.0
2017-Oct-07 16:00N 69°20' E 016°08'0 0.0
2017-Oct-07 15:30N 69°20' E 016°08'0 0.0
2017-Oct-07 15:00N 69°20' E 016°08'0 0.0
2017-Oct-07 14:30N 69°20' E 016°08'0 0.0
2017-Oct-07 14:00N 69°20' E 016°08'0 0.0
2017-Oct-07 13:30N 69°20' E 016°08'0 0.0
2017-Oct-07 13:00N 69°20' E 016°08'0 0.0
2017-Oct-07 12:30N 69°20' E 016°08'0 0.0
2017-Oct-07 12:00N 69°20' E 016°08'0 0.0
2017-Oct-07 11:30N 69°20' E 016°08'0 0.0
2017-Oct-07 11:00N 69°20' E 016°08'0 0.0
2017-Oct-07 10:30N 69°20' E 016°08'0 0.0
2017-Oct-07 10:00N 69°20' E 016°08'0 0.3
2017-Oct-07 09:28N 69°19' E 016°08'2 3.9
2017-Oct-07 08:59N 69°18' E 016°12'0 0.5
2017-Oct-07 08:29N 69°18' E 016°12'0 0.6
2017-Oct-07 08:00N 69°18' E 016°13'0 0.6
2017-Oct-07 07:28N 69°18' E 016°13'0 0.3
2017-Oct-07 06:59N 69°18' E 016°12'0 0.9
2017-Oct-07 06:30N 69°17' E 016°12'0 0.2
2017-Oct-07 05:59N 69°18' E 016°12'1 2.7
2017-Oct-07 05:29N 69°19' E 016°12'2 3.4
2017-Oct-07 04:59N 69°20' E 016°08'0 0.0
2017-Oct-07 04:29N 69°20' E 016°08'0 0.0
2017-Oct-07 03:59N 69°20' E 016°08'0 0.0
2017-Oct-07 03:29N 69°20' E 016°08'0 0.0
2017-Oct-07 02:59N 69°20' E 016°08'0 0.0
2017-Oct-07 02:29N 69°20' E 016°08'0 0.0
2017-Oct-07 01:59N 69°20' E 016°08'0 0.0
2017-Oct-07 01:29N 69°20' E 016°08'0 0.0
2017-Oct-07 00:59N 69°20' E 016°08'0 0.0
2017-Oct-07 00:29N 69°20' E 016°08'0 0.0
2017-Oct-06 23:59N 69°20' E 016°08'0 0.0
2017-Oct-06 23:29N 69°20' E 016°08'0 0.0
2017-Oct-06 22:59N 69°20' E 016°08'0 0.0
2017-Oct-06 22:29N 69°20' E 016°08'0 0.0
2017-Oct-06 21:59N 69°20' E 016°08'0 0.0
2017-Oct-06 21:29N 69°20' E 016°08'0 0.0
2017-Oct-06 20:59N 69°20' E 016°08'0 0.0
2017-Oct-06 20:29N 69°20' E 016°08'0 0.0
2017-Oct-06 19:59N 69°20' E 016°08'0 0.0
2017-Oct-06 19:29N 69°20' E 016°08'0 0.0
2017-Oct-06 18:59N 69°20' E 016°08'0 0.0
2017-Oct-06 18:29N 69°20' E 016°08'0 0.0
2017-Oct-06 17:59N 69°20' E 016°08'0 0.0
2017-Oct-06 17:29N 69°20' E 016°08'0 0.0
2017-Oct-06 16:59N 69°20' E 016°08'0 0.0
2017-Oct-06 16:29N 69°20' E 016°08'0 0.0
2017-Oct-06 15:59N 69°20' E 016°08'0 0.0
2017-Oct-06 15:29N 69°20' E 016°08'0 0.0
2017-Oct-06 14:59N 69°20' E 016°08'0 0.0
2017-Oct-06 14:29N 69°20' E 016°08'0 0.0
2017-Oct-06 13:59N 69°20' E 016°08'0 0.0
2017-Oct-06 13:29N 69°20' E 016°08'0 0.0
2017-Oct-06 12:59N 69°20' E 016°08'0 0.0
2017-Oct-06 12:29N 69°20' E 016°08'0 0.0
2017-Oct-06 11:59N 69°20' E 016°08'0 0.0
2017-Oct-06 11:29N 69°20' E 016°08'0 0.0
2017-Oct-06 10:59N 69°20' E 016°08'0 0.3
2017-Oct-06 10:29N 69°20' E 016°08'0 0.0
2017-Oct-06 09:59N 69°20' E 016°08'0 0.0
2017-Oct-06 09:30N 69°20' E 016°08'1 2.6
2017-Oct-06 09:00N 69°19' E 016°11'1 1.4
2017-Oct-06 08:29N 69°18' E 016°12'0 0.3
2017-Oct-06 07:59N 69°18' E 016°12'0 0.9
2017-Oct-06 07:28N 69°18' E 016°13'0 0.4
2017-Oct-06 07:00N 69°18' E 016°12'0 0.7
2017-Oct-06 06:30N 69°18' E 016°13'0 0.6
2017-Oct-06 06:00N 69°17' E 016°12'1 1.2
2017-Oct-06 05:30N 69°18' E 016°12'2 3.8
2017-Oct-06 04:58N 69°20' E 016°08'0 0.0
2017-Oct-06 04:28N 69°20' E 016°08'0 0.0
2017-Oct-06 03:58N 69°20' E 016°08'0 0.0
2017-Oct-06 03:29N 69°20' E 016°08'0 0.0
2017-Oct-06 02:59N 69°20' E 016°08'0 0.0
2017-Oct-06 02:28N 69°20' E 016°08'0 0.0
2017-Oct-06 01:58N 69°20' E 016°08'0 0.0
2017-Oct-06 01:26N 69°20' E 016°08'0 0.0
2017-Oct-06 00:59N 69°20' E 016°08'0 0.0
2017-Oct-06 00:29N 69°20' E 016°08'0 0.0
2017-Oct-05 23:58N 69°20' E 016°08'0 0.0
2017-Oct-05 23:28N 69°20' E 016°08'0 0.0
2017-Oct-05 22:58N 69°20' E 016°08'0 0.0
2017-Oct-05 22:29N 69°20' E 016°08'0 0.0
2017-Oct-05 21:59N 69°20' E 016°08'0 0.0
2017-Oct-05 21:28N 69°20' E 016°08'0 0.0
2017-Oct-05 20:58N 69°20' E 016°08'0 0.0
2017-Oct-05 20:28N 69°20' E 016°08'0 0.0
2017-Oct-05 19:58N 69°20' E 016°08'0 0.0
2017-Oct-05 19:29N 69°20' E 016°08'0 0.0
2017-Oct-05 18:58N 69°20' E 016°08'0 0.0
2017-Oct-05 18:28N 69°20' E 016°08'0 0.0
2017-Oct-05 17:58N 69°20' E 016°08'0 0.0
2017-Oct-05 17:28N 69°20' E 016°08'0 0.0
2017-Oct-05 16:58N 69°20' E 016°08'0 0.0
2017-Oct-05 15:29N 69°20' E 016°08'0 0.0
2017-Oct-05 14:59N 69°20' E 016°08'0 0.0
2017-Oct-05 14:28N 69°20' E 016°08'0 0.0
2017-Oct-05 13:58N 69°20' E 016°08'0 0.0
2017-Oct-05 13:28N 69°20' E 016°08'0 0.0
2017-Oct-05 12:58N 69°20' E 016°08'0 0.0
2017-Oct-05 12:30N 69°20' E 016°08'4 8.0
2017-Oct-05 12:00N 69°20' E 016°20'5 9.3
2017-Oct-05 11:31N 69°20' E 016°32'5 9.0
2017-Oct-05 11:00N 69°21' E 016°45'4 8.9
2017-Oct-05 10:31N 69°21' E 016°58'2 2.9
2017-Oct-05 09:46N 69°22' E 017°04'0 0.0
2017-Oct-05 09:28N 69°22' E 017°04'2 5.1
2017-Oct-05 09:00N 69°21' E 016°57'5 9.4
2017-Oct-05 08:30N 69°21' E 016°44'5 9.6
2017-Oct-05 08:00N 69°20' E 016°30'5 8.8
2017-Oct-05 07:29N 69°20' E 016°17'3 6.8
2017-Oct-05 07:00N 69°19' E 016°08'2 4.0
2017-Oct-05 06:30N 69°18' E 016°12'0 0.7
2017-Oct-05 06:00N 69°18' E 016°12'2 4.5
2017-Oct-05 05:29N 69°20' E 016°08'0 0.0
2017-Oct-05 04:59N 69°20' E 016°08'0 0.0
2017-Oct-05 04:29N 69°20' E 016°08'0 0.0
2017-Oct-05 03:59N 69°20' E 016°08'0 0.0
2017-Oct-05 03:29N 69°20' E 016°08'0 0.0
2017-Oct-05 02:59N 69°20' E 016°08'0 0.0
2017-Oct-05 02:29N 69°20' E 016°08'0 0.0
2017-Oct-05 01:59N 69°20' E 016°08'0 0.0
2017-Oct-05 01:29N 69°20' E 016°08'0 0.0
2017-Oct-05 00:59N 69°20' E 016°08'0 0.0
2017-Oct-05 00:29N 69°20' E 016°08'0 0.0
2017-Oct-04 23:59N 69°20' E 016°08'0 0.0
2017-Oct-04 23:29N 69°20' E 016°08'0 0.0
2017-Oct-04 22:59N 69°20' E 016°08'0 0.0
2017-Oct-04 22:29N 69°20' E 016°08'0 0.0
2017-Oct-04 21:59N 69°20' E 016°08'0 0.0
2017-Oct-04 21:29N 69°20' E 016°08'0 0.0
2017-Oct-04 20:59N 69°20' E 016°08'0 0.0
2017-Oct-04 20:29N 69°20' E 016°08'0 0.0
2017-Oct-04 19:59N 69°20' E 016°08'0 0.0
2017-Oct-04 19:29N 69°20' E 016°08'0 0.0
2017-Oct-04 18:59N 69°20' E 016°08'0 0.0
2017-Oct-04 18:29N 69°20' E 016°08'0 0.0
2017-Oct-04 17:59N 69°20' E 016°08'0 0.0
2017-Oct-04 17:29N 69°20' E 016°08'0 0.0
2017-Oct-04 16:59N 69°20' E 016°08'0 0.0
2017-Oct-04 16:29N 69°20' E 016°08'0 0.0
2017-Oct-04 15:59N 69°20' E 016°08'0 0.0
2017-Oct-04 15:29N 69°20' E 016°08'0 0.0
2017-Oct-04 14:59N 69°20' E 016°08'0 0.0
2017-Oct-04 14:29N 69°20' E 016°08'0 0.0
2017-Oct-04 13:59N 69°20' E 016°08'0 0.0
2017-Oct-04 13:29N 69°20' E 016°08'0 0.0
2017-Oct-04 12:59N 69°20' E 016°08'0 0.0
2017-Oct-04 12:29N 69°20' E 016°08'0 0.0
2017-Oct-04 11:59N 69°20' E 016°08'0 0.3
2017-Oct-04 11:29N 69°20' E 016°08'0 0.0
2017-Oct-04 10:59N 69°20' E 016°08'0 0.0
2017-Oct-04 10:29N 69°20' E 016°08'0 0.0
2017-Oct-04 09:59N 69°20' E 016°08'0 0.0
2017-Oct-04 09:29N 69°20' E 016°08'0 0.0
2017-Oct-04 08:59N 69°20' E 016°08'0 0.0
2017-Oct-04 08:29N 69°20' E 016°08'0 0.3
2017-Oct-04 08:00N 69°20' E 016°08'0 0.0
2017-Oct-04 07:30N 69°20' E 016°08'0 0.0
2017-Oct-04 07:00N 69°20' E 016°08'0 0.0
2017-Oct-04 06:30N 69°20' E 016°08'0 0.0
2017-Oct-04 06:00N 69°20' E 016°08'0 0.0
2017-Oct-04 05:30N 69°20' E 016°08'0 0.0
2017-Oct-04 05:00N 69°20' E 016°08'0 0.0
2017-Oct-04 04:30N 69°20' E 016°08'0 0.0
2017-Oct-04 04:00N 69°20' E 016°08'0 0.0
2017-Oct-04 03:30N 69°20' E 016°08'0 0.0
2017-Oct-04 03:00N 69°20' E 016°08'0 0.0
2017-Oct-04 02:30N 69°20' E 016°08'0 0.0
2017-Oct-04 02:00N 69°20' E 016°08'0 0.0
2017-Oct-04 01:30N 69°20' E 016°08'0 0.0
2017-Oct-04 01:00N 69°20' E 016°08'0 0.0
2017-Oct-04 00:30N 69°20' E 016°08'0 0.0
2017-Oct-04 00:00N 69°20' E 016°08'0 0.0
2017-Oct-03 23:30N 69°20' E 016°08'0 0.0
2017-Oct-03 23:00N 69°20' E 016°08'0 0.0
2017-Oct-03 22:30N 69°20' E 016°08'0 0.0
2017-Oct-03 22:00N 69°20' E 016°08'0 0.0
2017-Oct-03 21:30N 69°20' E 016°08'0 0.0
2017-Oct-03 21:00N 69°20' E 016°08'0 0.0
2017-Oct-03 20:30N 69°20' E 016°08'0 0.0
2017-Oct-03 20:00N 69°20' E 016°08'0 0.0
2017-Oct-03 19:30N 69°20' E 016°08'0 0.0
2017-Oct-03 19:00N 69°20' E 016°08'0 0.0
2017-Oct-03 18:30N 69°20' E 016°08'0 0.0
2017-Oct-03 18:00N 69°20' E 016°08'0 0.0
2017-Oct-03 17:30N 69°20' E 016°08'0 0.0
2017-Oct-03 17:00N 69°20' E 016°08'0 0.0
2017-Oct-03 16:30N 69°20' E 016°08'0 0.0
2017-Oct-03 16:00N 69°20' E 016°08'0 0.0
2017-Oct-03 15:30N 69°20' E 016°08'0 0.0
2017-Oct-03 15:00N 69°20' E 016°08'0 0.0
2017-Oct-03 14:00N 69°20' E 016°08'0 0.0
2017-Oct-03 13:30N 69°20' E 016°08'  
Track history (hours):
 
Tides and Currents Weather Stations Pressure Air Temp Water Temp Dewpoint Dewpoint Depression Visibility Wind Speed Wind Dir Waves Ship Positions

Norsol

Last reported at 2017-Oct-13 13:02 UTC. Time now 2017-Oct-18 20:04 UTC.
Position N 68°35' E 016°32'.

Length 11 m.

Type: Fishing. MMSI: 257313700.

Date/timePositionNaut miles runAvg speedWind from/ knotsBaromVisibWave heightAir tempDewpointWater temp
2017-Oct-13 13:02N 68°35' E 016°32'0 0.0
2017-Oct-13 12:59N 68°35' E 016°32'0 0.1
2017-Oct-13 12:30N 68°35' E 016°32'0 0.1
2017-Oct-13 12:00N 68°35' E 016°32'0 0.1
2017-Oct-13 11:29N 68°35' E 016°32'4 8.2
2017-Oct-13 11:00N 68°38' E 016°36'4 7.9
2017-Oct-13 10:29N 68°42' E 016°40'4 8.3
2017-Oct-13 10:00N 68°46' E 016°41'4 8.3
2017-Oct-13 09:30N 68°50' E 016°39'4 8.2
2017-Oct-13 09:00N 68°52' E 016°29'4 8.6
2017-Oct-13 08:30N 68°55' E 016°20'4 8.2
2017-Oct-13 08:00N 68°57' E 016°11'22 1.4
2017-Oct-12 16:24N 69°20' E 016°09'2 5.8
2017-Oct-12 16:00N 69°18' E 016°13'0 0.2
2017-Oct-12 15:29N 69°18' E 016°12'0 0.7
2017-Oct-12 15:00N 69°18' E 016°13'0 0.5
2017-Oct-12 14:29N 69°18' E 016°12'2 4.0
2017-Oct-12 13:58N 69°20' E 016°08'0 0.0
2017-Oct-12 13:28N 69°20' E 016°08'0 0.0
2017-Oct-12 12:58N 69°20' E 016°08'0 0.0
2017-Oct-12 12:28N 69°20' E 016°08'0 0.0
2017-Oct-12 11:58N 69°20' E 016°08'0 0.0
2017-Oct-12 11:28N 69°20' E 016°08'0 0.0
2017-Oct-12 10:58N 69°20' E 016°08'0 0.0
2017-Oct-12 10:28N 69°20' E 016°08'0 0.0
2017-Oct-12 09:58N 69°20' E 016°08'0 0.0
2017-Oct-12 09:28N 69°20' E 016°08'0 0.0
2017-Oct-12 08:58N 69°20' E 016°08'0 0.0
2017-Oct-12 08:25N 69°20' E 016°08'0 0.0
2017-Oct-12 07:58N 69°20' E 016°08'0 0.0
2017-Oct-12 07:28N 69°20' E 016°08'0 0.0
2017-Oct-12 06:58N 69°20' E 016°08'0 0.0
2017-Oct-12 06:28N 69°20' E 016°08'0 0.0
2017-Oct-12 05:58N 69°20' E 016°08'0 0.0
2017-Oct-12 05:28N 69°20' E 016°08'0 0.0
2017-Oct-12 04:58N 69°20' E 016°08'0 0.0
2017-Oct-12 04:28N 69°20' E 016°08'0 0.0
2017-Oct-12 03:55N 69°20' E 016°08'0 0.0
2017-Oct-12 03:28N 69°20' E 016°08'0 0.0
2017-Oct-12 02:58N 69°20' E 016°08'0 0.0
2017-Oct-12 02:28N 69°20' E 016°08'0 0.0
2017-Oct-12 01:58N 69°20' E 016°08'0 0.0
2017-Oct-12 01:28N 69°20' E 016°08'0 0.0
2017-Oct-12 00:58N 69°20' E 016°08'0 0.0
2017-Oct-12 00:28N 69°20' E 016°08'0 0.0
2017-Oct-11 23:58N 69°20' E 016°08'0 0.0
2017-Oct-11 23:28N 69°20' E 016°08'0 0.0
2017-Oct-11 22:58N 69°20' E 016°08'0 0.0
2017-Oct-11 22:28N 69°20' E 016°08'0 0.0
2017-Oct-11 21:58N 69°20' E 016°08'0 0.0
2017-Oct-11 21:28N 69°20' E 016°08'0 0.0
2017-Oct-11 20:58N 69°20' E 016°08'0 0.0
2017-Oct-11 20:28N 69°20' E 016°08'0 0.0
2017-Oct-11 19:58N 69°20' E 016°08'0 0.0
2017-Oct-11 19:25N 69°20' E 016°08'0 0.0
2017-Oct-11 18:58N 69°20' E 016°08'0 0.0
2017-Oct-11 18:28N 69°20' E 016°08'0 0.0
2017-Oct-11 17:58N 69°20' E 016°08'0 0.0
2017-Oct-11 17:28N 69°20' E 016°08'0 0.0
2017-Oct-11 16:58N 69°20' E 016°08'0 0.0
2017-Oct-10 23:58N 69°20' E 016°08'0 0.0
2017-Oct-10 23:28N 69°20' E 016°08'0 0.0
2017-Oct-10 22:58N 69°20' E 016°08'0 0.0
2017-Oct-10 22:28N 69°20' E 016°08'0 0.0
2017-Oct-10 21:58N 69°20' E 016°08'0 0.0
2017-Oct-10 21:28N 69°20' E 016°08'0 0.0
2017-Oct-10 20:58N 69°20' E 016°08'0 0.0
2017-Oct-10 20:28N 69°20' E 016°08'0 0.0
2017-Oct-10 19:58N 69°20' E 016°08'0 0.0
2017-Oct-10 19:28N 69°20' E 016°08'0 0.0
2017-Oct-10 18:58N 69°20' E 016°08'0 0.0
2017-Oct-10 18:28N 69°20' E 016°08'0 0.0
2017-Oct-10 17:58N 69°20' E 016°08'0 0.0
2017-Oct-10 17:28N 69°20' E 016°08'0 0.3
2017-Oct-10 17:00N 69°20' E 016°08'0 0.0
2017-Oct-10 16:30N 69°20' E 016°08'0 0.0
2017-Oct-10 16:00N 69°20' E 016°08'0 0.0
2017-Oct-10 15:30N 69°20' E 016°08'0 0.0
2017-Oct-10 15:00N 69°20' E 016°08'0 0.0
2017-Oct-10 14:00N 69°20' E 016°08'0 0.0
2017-Oct-10 13:30N 69°20' E 016°08'0 0.0
2017-Oct-10 13:00N 69°20' E 016°08'0 0.0
2017-Oct-10 12:30N 69°20' E 016°08'0 0.0
2017-Oct-10 12:00N 69°20' E 016°08'0 0.0
2017-Oct-10 11:30N 69°20' E 016°08'0 0.0
2017-Oct-10 11:00N 69°20' E 016°08'0 0.0
2017-Oct-10 10:30N 69°20' E 016°08'0 0.0
2017-Oct-10 10:00N 69°20' E 016°08'0 0.0
2017-Oct-10 09:30N 69°20' E 016°08'0 0.0
2017-Oct-10 09:00N 69°20' E 016°08'0 0.0
2017-Oct-10 08:30N 69°20' E 016°08'0 0.0
2017-Oct-10 08:00N 69°20' E 016°08'0 0.0
2017-Oct-10 07:30N 69°20' E 016°08'0 0.0
2017-Oct-10 07:00N 69°20' E 016°08'0 0.0
2017-Oct-10 06:30N 69°20' E 016°08'0 0.0
2017-Oct-10 06:00N 69°20' E 016°08'0 0.0
2017-Oct-10 05:30N 69°20' E 016°08'0 0.0
2017-Oct-10 05:00N 69°20' E 016°08'0 0.0
2017-Oct-10 04:30N 69°20' E 016°08'0 0.0
2017-Oct-10 04:00N 69°20' E 016°08'0 0.0
2017-Oct-10 03:30N 69°20' E 016°08'0 0.0
2017-Oct-10 03:00N 69°20' E 016°08'0 0.0
2017-Oct-10 02:30N 69°20' E 016°08'0 0.0
2017-Oct-10 02:00N 69°20' E 016°08'0 0.0
2017-Oct-10 01:30N 69°20' E 016°08'0 0.0
2017-Oct-10 01:00N 69°20' E 016°08'0 0.0
2017-Oct-10 00:30N 69°20' E 016°08'0 0.0
2017-Oct-10 00:00N 69°20' E 016°08'0 0.0
2017-Oct-09 23:30N 69°20' E 016°08'0 0.0
2017-Oct-09 23:00N 69°20' E 016°08'0 0.0
2017-Oct-09 22:30N 69°20' E 016°08'0 0.0
2017-Oct-09 22:00N 69°20' E 016°08'0 0.0
2017-Oct-09 21:30N 69°20' E 016°08'0 0.0
2017-Oct-09 21:00N 69°20' E 016°08'0 0.0
2017-Oct-09 20:30N 69°20' E 016°08'0 0.0
2017-Oct-09 20:00N 69°20' E 016°08'0 0.0
2017-Oct-09 19:30N 69°20' E 016°08'0 0.0
2017-Oct-09 19:00N 69°20' E 016°08'0 0.0
2017-Oct-09 18:30N 69°20' E 016°08'0 0.0
2017-Oct-09 18:00N 69°20' E 016°08'0 0.0
2017-Oct-09 17:30N 69°20' E 016°08'0 0.0
2017-Oct-09 17:00N 69°20' E 016°08'0 0.0
2017-Oct-09 16:30N 69°20' E 016°08'0 0.0
2017-Oct-09 16:00N 69°20' E 016°08'0 0.0
2017-Oct-09 15:30N 69°20' E 016°08'0 0.0
2017-Oct-09 15:00N 69°20' E 016°08'0 0.0
2017-Oct-09 14:30N 69°20' E 016°08'0 0.0
2017-Oct-09 14:00N 69°20' E 016°08'0 0.0
2017-Oct-09 13:30N 69°20' E 016°08'0 0.0
2017-Oct-09 13:00N 69°20' E 016°08'0 0.0
2017-Oct-09 12:30N 69°20' E 016°08'0 0.0
2017-Oct-09 12:00N 69°20' E 016°08'0 0.0
2017-Oct-09 11:27N 69°20' E 016°08'0 0.3
2017-Oct-09 11:00N 69°19' E 016°08'0 0.0
2017-Oct-09 10:30N 69°20' E 016°08'1 2.9
2017-Oct-09 10:00N 69°19' E 016°11'1 2.2
2017-Oct-09 09:29N 69°18' E 016°12'0 0.1
2017-Oct-09 08:59N 69°18' E 016°12'0 0.6
2017-Oct-09 08:28N 69°18' E 016°13'0 0.2
2017-Oct-09 07:59N 69°18' E 016°12'0 0.6
2017-Oct-09 07:30N 69°18' E 016°13'0 0.5
2017-Oct-09 07:00N 69°18' E 016°12'0 0.2
2017-Oct-09 06:30N 69°18' E 016°12'0 0.9
2017-Oct-09 05:59N 69°19' E 016°12'1 1.3
2017-Oct-09 05:30N 69°19' E 016°11'1 2.0
2017-Oct-09 05:00N 69°20' E 016°08'0 0.0
2017-Oct-09 04:30N 69°20' E 016°08'0 0.0
2017-Oct-09 04:00N 69°20' E 016°08'0 0.0
2017-Oct-09 03:30N 69°20' E 016°08'0 0.0
2017-Oct-09 03:00N 69°20' E 016°08'0 0.0
2017-Oct-09 02:30N 69°20' E 016°08'0 0.0
2017-Oct-09 02:00N 69°20' E 016°08'0 0.0
2017-Oct-09 01:30N 69°20' E 016°08'0 0.0
2017-Oct-09 01:00N 69°20' E 016°08'0 0.0
2017-Oct-09 00:30N 69°20' E 016°08'0 0.0
2017-Oct-09 00:00N 69°20' E 016°08'0 0.0
2017-Oct-08 23:30N 69°20' E 016°08'0 0.0
2017-Oct-08 23:00N 69°20' E 016°08'0 0.0
2017-Oct-08 22:30N 69°20' E 016°08'0 0.0
2017-Oct-08 22:00N 69°20' E 016°08'0 0.0
2017-Oct-08 21:30N 69°20' E 016°08'0 0.0
2017-Oct-08 21:00N 69°20' E 016°08'0 0.0
2017-Oct-08 20:30N 69°20' E 016°08'0 0.0
2017-Oct-08 20:00N 69°20' E 016°08'0 0.0
2017-Oct-08 19:30N 69°20' E 016°08'0 0.0
2017-Oct-08 19:00N 69°20' E 016°08'0 0.0
2017-Oct-08 18:30N 69°20' E 016°08'0 0.0
2017-Oct-08 18:00N 69°20' E 016°08'0 0.0
2017-Oct-08 17:30N 69°20' E 016°08'0 0.0
2017-Oct-08 17:00N 69°20' E 016°08'0 0.0
2017-Oct-08 16:30N 69°20' E 016°08'0 0.0
2017-Oct-08 16:00N 69°20' E 016°08'0 0.0
2017-Oct-08 15:30N 69°20' E 016°08'0 0.0
2017-Oct-08 15:00N 69°20' E 016°08'0 0.0
2017-Oct-08 14:30N 69°20' E 016°08'0 0.0
2017-Oct-08 14:00N 69°20' E 016°08'0 0.0
2017-Oct-08 13:30N 69°20' E 016°08'0 0.0
2017-Oct-08 13:00N 69°20' E 016°08'0 0.0
2017-Oct-08 12:30N 69°20' E 016°08'0 0.0
2017-Oct-08 12:00N 69°20' E 016°08'0 0.0
2017-Oct-08 11:30N 69°20' E 016°08'0 0.0
2017-Oct-08 11:00N 69°20' E 016°08'0 0.0
2017-Oct-08 10:30N 69°20' E 016°08'0 0.0
2017-Oct-08 10:00N 69°20' E 016°08'0 0.0
2017-Oct-08 09:30N 69°20' E 016°08'0 0.0
2017-Oct-08 09:00N 69°20' E 016°08'0 0.0
2017-Oct-08 08:30N 69°20' E 016°08'0 0.0
2017-Oct-08 08:00N 69°20' E 016°08'0 0.0
2017-Oct-08 07:30N 69°20' E 016°08'0 0.0
2017-Oct-08 07:00N 69°20' E 016°08'0 0.0
2017-Oct-08 06:30N 69°20' E 016°08'0 0.0
2017-Oct-08 06:00N 69°20' E 016°08'0 0.0
2017-Oct-08 05:30N 69°20' E 016°08'0 0.0
2017-Oct-08 05:00N 69°20' E 016°08'0 0.0
2017-Oct-08 04:30N 69°20' E 016°08'0 0.0
2017-Oct-08 04:00N 69°20' E 016°08'0 0.0
2017-Oct-08 03:30N 69°20' E 016°08'0 0.0
2017-Oct-08 03:00N 69°20' E 016°08'0 0.0
2017-Oct-08 02:30N 69°20' E 016°08'0 0.0
2017-Oct-08 02:00N 69°20' E 016°08'0 0.0
2017-Oct-08 01:30N 69°20' E 016°08'0 0.0
2017-Oct-08 01:00N 69°20' E 016°08'0 0.0
2017-Oct-08 00:30N 69°20' E 016°08'0 0.0
2017-Oct-08 00:00N 69°20' E 016°08'0 0.0
2017-Oct-07 23:30N 69°20' E 016°08'0 0.0
2017-Oct-07 23:00N 69°20' E 016°08'0 0.0
2017-Oct-07 22:30N 69°20' E 016°08'0 0.0
2017-Oct-07 22:00N 69°20' E 016°08'0 0.0
2017-Oct-07 21:30N 69°20' E 016°08'0 0.0
2017-Oct-07 21:00N 69°20' E 016°08'0 0.0
2017-Oct-07 20:30N 69°20' E 016°08'0 0.0
2017-Oct-07 20:00N 69°20' E 016°08'0 0.0
2017-Oct-07 19:30N 69°20' E 016°08'0 0.0
2017-Oct-07 19:00N 69°20' E 016°08'0 0.0
2017-Oct-07 18:30N 69°20' E 016°08'0 0.0
2017-Oct-07 18:00N 69°20' E 016°08'0 0.0
2017-Oct-07 17:30N 69°20' E 016°08'0 0.0
2017-Oct-07 17:00N 69°20' E 016°08'0 0.0
2017-Oct-07 16:30N 69°20' E 016°08'0 0.0
2017-Oct-07 16:00N 69°20' E 016°08'0 0.0
2017-Oct-07 15:30N 69°20' E 016°08'0 0.0
2017-Oct-07 15:00N 69°20' E 016°08'0 0.0
2017-Oct-07 14:30N 69°20' E 016°08'0 0.0
2017-Oct-07 14:00N 69°20' E 016°08'0 0.0
2017-Oct-07 13:30N 69°20' E 016°08'0 0.0
2017-Oct-07 13:00N 69°20' E 016°08'0 0.0
2017-Oct-07 12:30N 69°20' E 016°08'0 0.0
2017-Oct-07 12:00N 69°20' E 016°08'0 0.0
2017-Oct-07 11:30N 69°20' E 016°08'0 0.0
2017-Oct-07 11:00N 69°20' E 016°08'0 0.0
2017-Oct-07 10:30N 69°20' E 016°08'0 0.0
2017-Oct-07 10:00N 69°20' E 016°08'0 0.3
2017-Oct-07 09:28N 69°19' E 016°08'2 3.9
2017-Oct-07 08:59N 69°18' E 016°12'0 0.5
2017-Oct-07 08:29N 69°18' E 016°12'0 0.6
2017-Oct-07 08:00N 69°18' E 016°13'0 0.6
2017-Oct-07 07:28N 69°18' E 016°13'0 0.3
2017-Oct-07 06:59N 69°18' E 016°12'0 0.9
2017-Oct-07 06:30N 69°17' E 016°12'0 0.2
2017-Oct-07 05:59N 69°18' E 016°12'1 2.7
2017-Oct-07 05:29N 69°19' E 016°12'2 3.4
2017-Oct-07 04:59N 69°20' E 016°08'0 0.0
2017-Oct-07 04:29N 69°20' E 016°08'0 0.0
2017-Oct-07 03:59N 69°20' E 016°08'0 0.0
2017-Oct-07 03:29N 69°20' E 016°08'0 0.0
2017-Oct-07 02:59N 69°20' E 016°08'0 0.0
2017-Oct-07 02:29N 69°20' E 016°08'0 0.0
2017-Oct-07 01:59N 69°20' E 016°08'0 0.0
2017-Oct-07 01:29N 69°20' E 016°08'0 0.0
2017-Oct-07 00:59N 69°20' E 016°08'0 0.0
2017-Oct-07 00:29N 69°20' E 016°08'0 0.0
2017-Oct-06 23:59N 69°20' E 016°08'0 0.0
2017-Oct-06 23:29N 69°20' E 016°08'0 0.0
2017-Oct-06 22:59N 69°20' E 016°08'0 0.0
2017-Oct-06 22:29N 69°20' E 016°08'0 0.0
2017-Oct-06 21:59N 69°20' E 016°08'0 0.0
2017-Oct-06 21:29N 69°20' E 016°08'0 0.0
2017-Oct-06 20:59N 69°20' E 016°08'0 0.0
2017-Oct-06 20:29N 69°20' E 016°08'0 0.0
2017-Oct-06 19:59N 69°20' E 016°08'0 0.0
2017-Oct-06 19:29N 69°20' E 016°08'0 0.0
2017-Oct-06 18:59N 69°20' E 016°08'0 0.0
2017-Oct-06 18:29N 69°20' E 016°08'0 0.0
2017-Oct-06 17:59N 69°20' E 016°08'0 0.0
2017-Oct-06 17:29N 69°20' E 016°08'0 0.0
2017-Oct-06 16:59N 69°20' E 016°08'0 0.0
2017-Oct-06 16:29N 69°20' E 016°08'0 0.0
2017-Oct-06 15:59N 69°20' E 016°08'0 0.0
2017-Oct-06 15:29N 69°20' E 016°08'0 0.0
2017-Oct-06 14:59N 69°20' E 016°08'0 0.0
2017-Oct-06 14:29N 69°20' E 016°08'0 0.0
2017-Oct-06 13:59N 69°20' E 016°08'0 0.0
2017-Oct-06 13:29N 69°20' E 016°08'0 0.0
2017-Oct-06 12:59N 69°20' E 016°08'0 0.0
2017-Oct-06 12:29N 69°20' E 016°08'0 0.0
2017-Oct-06 11:59N 69°20' E 016°08'0 0.0
2017-Oct-06 11:29N 69°20' E 016°08'0 0.0
2017-Oct-06 10:59N 69°20' E 016°08'0 0.3
2017-Oct-06 10:29N 69°20' E 016°08'0 0.0
2017-Oct-06 09:59N 69°20' E 016°08'0 0.0
2017-Oct-06 09:30N 69°20' E 016°08'1 2.6
2017-Oct-06 09:00N 69°19' E 016°11'1 1.4
2017-Oct-06 08:29N 69°18' E 016°12'0 0.3
2017-Oct-06 07:59N 69°18' E 016°12'0 0.9
2017-Oct-06 07:28N 69°18' E 016°13'0 0.4
2017-Oct-06 07:00N 69°18' E 016°12'0 0.7
2017-Oct-06 06:30N 69°18' E 016°13'0 0.6
2017-Oct-06 06:00N 69°17' E 016°12'1 1.2
2017-Oct-06 05:30N 69°18' E 016°12'2 3.8
2017-Oct-06 04:58N 69°20' E 016°08'0 0.0
2017-Oct-06 04:28N 69°20' E 016°08'0 0.0
2017-Oct-06 03:58N 69°20' E 016°08'0 0.0
2017-Oct-06 03:29N 69°20' E 016°08'0 0.0
2017-Oct-06 02:59N 69°20' E 016°08'0 0.0
2017-Oct-06 02:28N 69°20' E 016°08'0 0.0
2017-Oct-06 01:58N 69°20' E 016°08'0 0.0
2017-Oct-06 01:26N 69°20' E 016°08'0 0.0
2017-Oct-06 00:59N 69°20' E 016°08'0 0.0
2017-Oct-06 00:29N 69°20' E 016°08'0 0.0
2017-Oct-05 23:58N 69°20' E 016°08'0 0.0
2017-Oct-05 23:28N 69°20' E 016°08'0 0.0
2017-Oct-05 22:58N 69°20' E 016°08'0 0.0
2017-Oct-05 22:29N 69°20' E 016°08'0 0.0
2017-Oct-05 21:59N 69°20' E 016°08'0 0.0
2017-Oct-05 21:28N 69°20' E 016°08'0 0.0
2017-Oct-05 20:58N 69°20' E 016°08'0 0.0
2017-Oct-05 20:28N 69°20' E 016°08'0 0.0
2017-Oct-05 19:58N 69°20' E 016°08'0 0.0
2017-Oct-05 19:29N 69°20' E 016°08'0 0.0
2017-Oct-05 18:58N 69°20' E 016°08'0 0.0
2017-Oct-05 18:28N 69°20' E 016°08'0 0.0
2017-Oct-05 17:58N 69°20' E 016°08'0 0.0
2017-Oct-05 17:28N 69°20' E 016°08'0 0.0
2017-Oct-05 16:58N 69°20' E 016°08'0 0.0
2017-Oct-05 15:29N 69°20' E 016°08'0 0.0
2017-Oct-05 14:59N 69°20' E 016°08'0 0.0
2017-Oct-05 14:28N 69°20' E 016°08'0 0.0
2017-Oct-05 13:58N 69°20' E 016°08'0 0.0
2017-Oct-05 13:28N 69°20' E 016°08'0 0.0
2017-Oct-05 12:58N 69°20' E 016°08'0 0.0
2017-Oct-05 12:30N 69°20' E 016°08'4 8.0
2017-Oct-05 12:00N 69°20' E 016°20'5 9.3
2017-Oct-05 11:31N 69°20' E 016°32'5 9.0
2017-Oct-05 11:00N 69°21' E 016°45'4 8.9
2017-Oct-05 10:31N 69°21' E 016°58'2 2.9
2017-Oct-05 09:46N 69°22' E 017°04'0 0.0
2017-Oct-05 09:28N 69°22' E 017°04'2 5.1
2017-Oct-05 09:00N 69°21' E 016°57'5 9.4
2017-Oct-05 08:30N 69°21' E 016°44'5 9.6
2017-Oct-05 08:00N 69°20' E 016°30'5 8.8
2017-Oct-05 07:29N 69°20' E 016°17'3 6.8
2017-Oct-05 07:00N 69°19' E 016°08'2 4.0
2017-Oct-05 06:30N 69°18' E 016°12'0 0.7
2017-Oct-05 06:00N 69°18' E 016°12'2 4.5
2017-Oct-05 05:29N 69°20' E 016°08'0 0.0
2017-Oct-05 04:59N 69°20' E 016°08'0 0.0
2017-Oct-05 04:29N 69°20' E 016°08'0 0.0
2017-Oct-05 03:59N 69°20' E 016°08'0 0.0
2017-Oct-05 03:29N 69°20' E 016°08'0 0.0
2017-Oct-05 02:59N 69°20' E 016°08'0 0.0
2017-Oct-05 02:29N 69°20' E 016°08'0 0.0
2017-Oct-05 01:59N 69°20' E 016°08'0 0.0
2017-Oct-05 01:29N 69°20' E 016°08'0 0.0
2017-Oct-05 00:59N 69°20' E 016°08'0 0.0
2017-Oct-05 00:29N 69°20' E 016°08'0 0.0
2017-Oct-04 23:59N 69°20' E 016°08'0 0.0
2017-Oct-04 23:29N 69°20' E 016°08'0 0.0
2017-Oct-04 22:59N 69°20' E 016°08'0 0.0
2017-Oct-04 22:29N 69°20' E 016°08'0 0.0
2017-Oct-04 21:59N 69°20' E 016°08'0 0.0
2017-Oct-04 21:29N 69°20' E 016°08'0 0.0
2017-Oct-04 20:59N 69°20' E 016°08'0 0.0
2017-Oct-04 20:29N 69°20' E 016°08'0 0.0
2017-Oct-04 19:59N 69°20' E 016°08'0 0.0
2017-Oct-04 19:29N 69°20' E 016°08'0 0.0
2017-Oct-04 18:59N 69°20' E 016°08'0 0.0
2017-Oct-04 18:29N 69°20' E 016°08'0 0.0
2017-Oct-04 17:59N 69°20' E 016°08'0 0.0
2017-Oct-04 17:29N 69°20' E 016°08'0 0.0
2017-Oct-04 16:59N 69°20' E 016°08'0 0.0
2017-Oct-04 16:29N 69°20' E 016°08'0 0.0
2017-Oct-04 15:59N 69°20' E 016°08'0 0.0
2017-Oct-04 15:29N 69°20' E 016°08'0 0.0
2017-Oct-04 14:59N 69°20' E 016°08'0 0.0
2017-Oct-04 14:29N 69°20' E 016°08'0 0.0
2017-Oct-04 13:59N 69°20' E 016°08'0 0.0
2017-Oct-04 13:29N 69°20' E 016°08'0 0.0
2017-Oct-04 12:59N 69°20' E 016°08'0 0.0
2017-Oct-04 12:29N 69°20' E 016°08'0 0.0
2017-Oct-04 11:59N 69°20' E 016°08'0 0.3
2017-Oct-04 11:29N 69°20' E 016°08'0 0.0
2017-Oct-04 10:59N 69°20' E 016°08'0 0.0
2017-Oct-04 10:29N 69°20' E 016°08'0 0.0
2017-Oct-04 09:59N 69°20' E 016°08'0 0.0
2017-Oct-04 09:29N 69°20' E 016°08'0 0.0
2017-Oct-04 08:59N 69°20' E 016°08'0 0.0
2017-Oct-04 08:29N 69°20' E 016°08'0 0.3
2017-Oct-04 08:00N 69°20' E 016°08'0 0.0
2017-Oct-04 07:30N 69°20' E 016°08'0 0.0
2017-Oct-04 07:00N 69°20' E 016°08'0 0.0
2017-Oct-04 06:30N 69°20' E 016°08'0 0.0
2017-Oct-04 06:00N 69°20' E 016°08'0 0.0
2017-Oct-04 05:30N 69°20' E 016°08'0 0.0
2017-Oct-04 05:00N 69°20' E 016°08'0 0.0
2017-Oct-04 04:30N 69°20' E 016°08'0 0.0
2017-Oct-04 04:00N 69°20' E 016°08'0 0.0
2017-Oct-04 03:30N 69°20' E 016°08'0 0.0
2017-Oct-04 03:00N 69°20' E 016°08'0 0.0
2017-Oct-04 02:30N 69°20' E 016°08'0 0.0
2017-Oct-04 02:00N 69°20' E 016°08'0 0.0
2017-Oct-04 01:30N 69°20' E 016°08'0 0.0
2017-Oct-04 01:00N 69°20' E 016°08'0 0.0
2017-Oct-04 00:30N 69°20' E 016°08'0 0.0
2017-Oct-04 00:00N 69°20' E 016°08'0 0.0
2017-Oct-03 23:30N 69°20' E 016°08'0 0.0
2017-Oct-03 23:00N 69°20' E 016°08'0 0.0
2017-Oct-03 22:30N 69°20' E 016°08'0 0.0
2017-Oct-03 22:00N 69°20' E 016°08'0 0.0
2017-Oct-03 21:30N 69°20' E 016°08'0 0.0
2017-Oct-03 21:00N 69°20' E 016°08'0 0.0
2017-Oct-03 20:30N 69°20' E 016°08'0 0.0
2017-Oct-03 20:00N 69°20' E 016°08'0 0.0
2017-Oct-03 19:30N 69°20' E 016°08'0 0.0
2017-Oct-03 19:00N 69°20' E 016°08'0 0.0
2017-Oct-03 18:30N 69°20' E 016°08'0 0.0
2017-Oct-03 18:00N 69°20' E 016°08'0 0.0
2017-Oct-03 17:30N 69°20' E 016°08'0 0.0
2017-Oct-03 17:00N 69°20' E 016°08'0 0.0
2017-Oct-03 16:30N 69°20' E 016°08'0 0.0
2017-Oct-03 16:00N 69°20' E 016°08'0 0.0
2017-Oct-03 15:30N 69°20' E 016°08'0 0.0
2017-Oct-03 15:00N 69°20' E 016°08'0 0.0
2017-Oct-03 14:00N 69°20' E 016°08'0 0.0
2017-Oct-03 13:30N 69°20' E 016°08'  

Dump ship's entire track history